createdAt,value
2019-01-12T19:43:23.832Z,7.93
2019-01-12T19:45:24.941Z,7.90
2019-01-12T19:47:25.769Z,8.17
2019-01-12T19:49:26.605Z,7.80
2019-01-12T19:51:27.436Z,7.67
2019-01-12T19:53:28.284Z,7.23
2019-01-12T19:55:29.468Z,7.53
2019-01-12T19:57:30.316Z,7.67
2019-01-12T19:59:31.148Z,7.40
2019-01-12T20:01:32.004Z,7.40
2019-01-12T20:03:32.836Z,7.87
2019-01-12T20:05:33.681Z,8.17
2019-01-12T20:07:34.519Z,7.83
2019-01-12T20:09:35.356Z,7.27
2019-01-12T20:11:36.453Z,7.10
2019-01-12T20:13:37.309Z,8.13
2019-01-12T20:15:38.128Z,7.13
2019-01-12T20:17:38.960Z,6.40
2019-01-12T20:19:39.812Z,5.90
2019-01-12T20:21:40.649Z,5.80
2019-01-12T20:23:41.488Z,5.33
2019-01-12T20:25:42.340Z,5.30
2019-01-12T20:27:43.221Z,5.50
2019-01-12T20:29:44.360Z,5.17
2019-01-12T20:31:45.195Z,5.43
2019-01-12T20:33:46.049Z,5.10
2019-01-12T20:35:46.881Z,5.10
2019-01-12T20:37:47.713Z,5.63
2019-01-12T20:39:48.550Z,5.10
2019-01-12T20:41:49.396Z,5.10
2019-01-12T20:43:50.232Z,5.17
2019-01-12T20:45:51.094Z,5.10
2019-01-12T20:47:51.959Z,4.97
2019-01-12T20:49:52.805Z,5.00
2019-01-12T20:51:53.957Z,4.67
2019-01-12T20:53:54.788Z,4.40
2019-01-12T20:55:55.621Z,4.37
2019-01-12T20:57:56.468Z,4.10
2019-01-12T20:59:57.552Z,4.40
2019-01-12T21:01:59.849Z,4.27
2019-01-12T21:04:00.950Z,4.63
2019-01-12T21:06:01.808Z,4.80
2019-01-12T21:08:02.633Z,4.40
2019-01-12T21:10:03.460Z,4.70
2019-01-12T21:12:04.313Z,4.50
2019-01-12T21:14:05.151Z,4.10
2019-01-12T21:16:05.984Z,4.70
2019-01-12T21:18:06.828Z,4.70
2019-01-12T21:20:07.664Z,4.40
2019-01-12T21:22:08.497Z,4.67
2019-01-12T21:24:09.353Z,4.43
2019-01-12T21:26:10.306Z,4.43
2019-01-12T21:28:11.133Z,4.67
2019-01-12T21:30:11.974Z,5.00
2019-01-12T21:32:12.815Z,4.30
2019-01-12T21:34:13.656Z,4.53
2019-01-12T21:36:14.797Z,3.93
2019-01-12T21:38:15.695Z,4.33
2019-01-12T21:40:16.599Z,3.90
2019-01-12T21:42:17.468Z,3.87
2019-01-12T21:44:18.369Z,3.60
2019-01-12T21:46:19.324Z,3.40
2019-01-12T21:48:20.233Z,3.33
2019-01-12T21:50:21.077Z,3.53
2019-01-12T21:52:22.038Z,3.87
2019-01-12T21:54:23.048Z,3.70
2019-01-12T21:56:23.968Z,3.47
2019-01-12T21:58:24.813Z,4.83
2019-01-12T22:00:25.660Z,3.87
2019-01-12T22:02:26.581Z,3.97
2019-01-12T22:04:27.710Z,4.00
2019-01-12T22:06:28.540Z,4.30
2019-01-12T22:08:29.393Z,4.30
2019-01-12T22:10:30.217Z,3.90
2019-01-12T22:12:31.068Z,3.90
2019-01-12T22:14:31.900Z,3.77
2019-01-12T22:16:32.761Z,4.50
2019-01-12T22:18:33.924Z,4.27
2019-01-12T22:20:34.762Z,4.93
2019-01-12T22:22:35.604Z,4.70
2019-01-12T22:24:36.455Z,4.40
2019-01-12T22:26:37.292Z,3.60
2019-01-12T22:28:38.121Z,4.40
2019-01-12T22:30:38.965Z,4.07
2019-01-12T22:32:39.800Z,4.20
2019-01-12T22:34:40.632Z,4.33
2019-01-12T22:36:41.480Z,3.83
2019-01-12T22:38:42.388Z,4.27
2019-01-12T22:40:43.216Z,4.70
2019-01-12T22:42:44.340Z,4.10
2019-01-12T22:44:45.169Z,4.07
2019-01-12T22:46:46.017Z,4.00
2019-01-12T22:48:46.848Z,4.17
2019-01-12T22:50:47.671Z,3.90
2019-01-12T22:52:48.524Z,3.90
2019-01-12T22:54:49.380Z,3.50
2019-01-12T22:56:50.580Z,3.60
2019-01-12T22:58:51.412Z,3.60
2019-01-12T23:00:52.741Z,4.00
2019-01-12T23:02:53.584Z,3.27
2019-01-12T23:04:54.439Z,3.13
2019-01-12T23:06:55.272Z,3.10
2019-01-12T23:08:56.149Z,2.90
2019-01-12T23:10:56.997Z,2.80
2019-01-12T23:12:57.853Z,2.60
2019-01-12T23:14:58.733Z,2.60
2019-01-12T23:16:59.587Z,2.70
2019-01-12T23:19:00.420Z,2.60
2019-01-12T23:21:01.355Z,2.83
2019-01-12T23:23:02.546Z,3.10
2019-01-12T23:25:03.369Z,2.60
2019-01-12T23:27:04.207Z,2.50
2019-01-12T23:29:05.055Z,2.50
2019-01-12T23:31:06.173Z,2.60
2019-01-12T23:33:07.028Z,2.53
2019-01-12T23:35:07.858Z,2.50
2019-01-12T23:37:08.716Z,2.40
2019-01-12T23:39:09.549Z,2.40
2019-01-12T23:41:10.402Z,2.40
2019-01-12T23:43:11.220Z,2.43
2019-01-12T23:45:12.056Z,2.67
2019-01-12T23:47:12.887Z,2.90
2019-01-12T23:49:13.740Z,2.67
2019-01-12T23:51:14.572Z,2.50
2019-01-12T23:53:15.429Z,3.10
2019-01-12T23:55:16.261Z,2.50
2019-01-12T23:57:17.118Z,2.70
2019-01-12T23:59:18.053Z,2.67
